Time;durP1;ratioP1;P1;durP2;ratioP2;P2;SDS_P1;SDS_P2;PMS_P1;PMS_P2;Temp;Humidity;BMP_temperature;BMP_pressure;BME280_temperature;BME280_humidity;BME280_pressure;Samples;Min_cycle;Max_cycle;Signal;HPM_P1;HPM_P2
2023/05/08 00:00:48;;;;;;;;;;;12.90;99.90;;;;;;4969331;28;19977;-70
2023/05/08 00:03:13;;;;;;;;;;;12.80;99.90;;;;;;4971839;28;20504;-69
2023/05/08 00:05:41;;;;;;;;;;;12.70;99.90;;;;;;4962322;28;19968;-68
2023/05/08 00:08:07;;;;;;;;;;;12.60;99.90;;;;;;4969039;28;19934;-69
2023/05/08 00:10:32;;;;;;;;;;;12.60;99.90;;;;;;4970224;28;19943;-61
2023/05/08 00:12:58;;;;;;;;;;;12.50;99.90;;;;;;4968756;28;21636;-61
2023/05/08 00:15:23;;;;;;;;;;;12.50;99.90;;;;;;4966421;28;19952;-62
2023/05/08 00:17:49;;;;;;;;;;;12.50;99.90;;;;;;4972476;28;20049;-61
2023/05/08 00:20:14;;;;;;;;;;;12.50;99.90;;;;;;4969626;28;19939;-62
2023/05/08 00:22:40;;;;;;;;;;;12.50;99.90;;;;;;4974954;28;19972;-62
2023/05/08 00:25:05;;;;;;;;;;;12.50;99.90;;;;;;4964623;28;20645;-62
2023/05/08 00:27:31;;;;;;;;;;;12.40;99.90;;;;;;4970507;28;19933;-62
2023/05/08 00:29:57;;;;;;;;;;;12.40;99.90;;;;;;4967128;28;19943;-62
2023/05/08 00:32:22;;;;;;;;;;;12.40;99.90;;;;;;4966226;28;20127;-69
2023/05/08 00:34:48;;;;;;;;;;;12.40;99.90;;;;;;4972302;28;19950;-69
2023/05/08 00:37:13;;;;;;;;;;;12.50;99.90;;;;;;4960819;28;20003;-70
2023/05/08 00:39:39;;;;;;;;;;;12.50;99.90;;;;;;4967386;28;20059;-69
2023/05/08 00:42:04;;;;;;;;;;;12.60;99.90;;;;;;4970147;28;19952;-70
2023/05/08 00:44:30;;;;;;;;;;;12.60;99.90;;;;;;4962183;28;19939;-70
2023/05/08 00:46:55;;;;;;;;;;;12.60;99.90;;;;;;4962311;28;20076;-70
2023/05/08 00:49:21;;;;;;;;;;;12.60;99.90;;;;;;4970329;28;19946;-70
2023/05/08 00:51:48;;;;;;;;;;;12.60;99.90;;;;;;4965150;28;19962;-62
2023/05/08 00:54:13;;;;;;;;;;;12.60;99.90;;;;;;4967020;28;19944;-63
2023/05/08 00:56:39;;;;;;;;;;;12.60;99.90;;;;;;4962148;28;19967;-63
2023/05/08 00:59:13;;;;;;;;;;;12.50;99.90;;;;;;4968889;28;19942;-63
2023/05/08 01:01:39;;;;;;;;;;;12.50;99.90;;;;;;4961331;28;19939;-63
2023/05/08 01:04:04;;;;;;;;;;;12.60;99.90;;;;;;4970665;28;20399;-63
2023/05/08 01:06:30;;;;;;;;;;;12.50;99.90;;;;;;4955468;28;19942;-63
2023/05/08 01:08:56;;;;;;;;;;;12.50;99.90;;;;;;4963949;28;20017;-72
2023/05/08 01:11:40;;;;;;;;;;;12.40;99.90;;;;;;4967903;28;19940;-72
2023/05/08 01:14:31;;;;;;;;;;;12.40;99.90;;;;;;4964096;28;19966;-72
2023/05/08 01:17:10;;;;;;;;;;;12.40;99.90;;;;;;4961468;28;20879;-72
2023/05/08 01:20:02;;;;;;;;;;;12.50;99.90;;;;;;4967435;28;20352;-72
2023/05/08 01:22:47;;;;;;;;;;;12.40;99.90;;;;;;4961983;28;19964;-72
2023/05/08 01:25:12;;;;;;;;;;;12.40;99.90;;;;;;4991800;28;20034;-72
2023/05/08 01:28:10;;;;;;;;;;;12.40;99.90;;;;;;4969213;28;20249;-62
2023/05/08 01:30:41;;;;;;;;;;;12.40;99.90;;;;;;4974446;28;19979;-72
2023/05/08 01:33:09;;;;;;;;;;;12.30;99.90;;;;;;4966350;28;19939;-73
2023/05/08 01:35:44;;;;;;;;;;;12.30;99.90;;;;;;4960825;28;19947;-71
2023/05/08 01:38:13;;;;;;;;;;;12.30;99.90;;;;;;4961287;28;19957;-72
2023/05/08 01:40:45;;;;;;;;;;;12.30;99.90;;;;;;4965273;28;20490;-72
2023/05/08 01:43:14;;;;;;;;;;;12.30;99.90;;;;;;4997251;28;19999;-72
2023/05/08 01:45:43;;;;;;;;;;;12.30;99.90;;;;;;4967166;28;20415;-72
2023/05/08 01:48:27;;;;;;;;;;;12.20;99.90;;;;;;4965957;28;20403;-72
2023/05/08 01:50:59;;;;;;;;;;;12.10;99.90;;;;;;4968581;28;19951;-73
2023/05/08 01:53:27;;;;;;;;;;;12.10;99.90;;;;;;4966014;28;19953;-72
2023/05/08 01:55:54;;;;;;;;;;;12.10;99.90;;;;;;4963753;28;19966;-72
2023/05/08 01:58:22;;;;;;;;;;;12.20;99.90;;;;;;4971589;28;19995;-72
2023/05/08 02:00:47;;;;;;;;;;;12.20;99.90;;;;;;4965965;28;20020;-72
2023/05/08 02:03:15;;;;;;;;;;;12.30;99.90;;;;;;4971928;28;19938;-72
2023/05/08 02:05:46;;;;;;;;;;;12.30;99.90;;;;;;4973915;28;19940;-72
2023/05/08 02:08:13;;;;;;;;;;;12.30;99.90;;;;;;4970072;28;20721;-73
2023/05/08 02:10:41;;;;;;;;;;;12.30;99.90;;;;;;4972305;28;19941;-72
2023/05/08 02:13:07;;;;;;;;;;;12.20;99.90;;;;;;4971080;28;19944;-72
2023/05/08 02:15:35;;;;;;;;;;;12.20;99.90;;;;;;4967173;28;20526;-72
2023/05/08 02:18:02;;;;;;;;;;;12.20;99.90;;;;;;4971280;28;20603;-72
2023/05/08 02:20:28;;;;;;;;;;;12.20;99.90;;;;;;4969943;28;19971;-73
2023/05/08 02:22:54;;;;;;;;;;;12.10;99.90;;;;;;4971404;28;20043;-72
2023/05/08 02:25:20;;;;;;;;;;;12.00;99.90;;;;;;4970056;28;20643;-72
2023/05/08 02:27:46;;;;;;;;;;;12.10;99.90;;;;;;4965080;28;20999;-72
2023/05/08 02:30:13;;;;;;;;;;;12.10;99.90;;;;;;4968846;28;19985;-72
2023/05/08 02:32:40;;;;;;;;;;;12.00;99.90;;;;;;4968471;28;19965;-72
2023/05/08 02:35:06;;;;;;;;;;;12.00;99.90;;;;;;4966122;28;20031;-72
2023/05/08 02:37:32;;;;;;;;;;;12.00;99.90;;;;;;4956389;28;19969;-72
2023/05/08 02:39:58;;;;;;;;;;;12.00;99.90;;;;;;4969902;28;20425;-72
2023/05/08 02:42:24;;;;;;;;;;;12.00;99.90;;;;;;4969319;28;19967;-72
2023/05/08 02:44:49;;;;;;;;;;;12.00;99.90;;;;;;4973490;28;19947;-72
2023/05/08 02:47:15;;;;;;;;;;;11.90;99.90;;;;;;4964608;28;20407;-72
2023/05/08 02:50:01;;;;;;;;;;;11.90;99.90;;;;;;4972824;28;19944;-72
2023/05/08 02:52:27;;;;;;;;;;;11.90;99.90;;;;;;4974564;28;19943;-72
2023/05/08 02:55:02;;;;;;;;;;;12.00;99.90;;;;;;4968427;28;19944;-72
2023/05/08 02:57:30;;;;;;;;;;;12.00;99.90;;;;;;4969415;28;19962;-72
2023/05/08 02:59:59;;;;;;;;;;;11.90;99.90;;;;;;4969022;28;19936;-72
2023/05/08 03:02:38;;;;;;;;;;;11.90;99.90;;;;;;4965551;28;20006;-72
2023/05/08 03:05:23;;;;;;;;;;;11.90;99.90;;;;;;4968768;28;20043;-72
2023/05/08 03:07:51;;;;;;;;;;;12.00;99.90;;;;;;4964134;28;19942;-72
2023/05/08 03:10:18;;;;;;;;;;;12.00;99.90;;;;;;4971733;28;19945;-72
2023/05/08 03:12:45;;;;;;;;;;;11.90;99.90;;;;;;4969504;28;19935;-72
2023/05/08 03:15:25;;;;;;;;;;;11.90;99.90;;;;;;4971803;28;20022;-72
2023/05/08 03:17:53;;;;;;;;;;;11.90;99.90;;;;;;4968046;28;19965;-72
2023/05/08 03:20:20;;;;;;;;;;;11.90;99.90;;;;;;4970372;28;20063;-72
2023/05/08 03:22:47;;;;;;;;;;;11.80;99.90;;;;;;4974966;28;20401;-72
2023/05/08 03:25:15;;;;;;;;;;;11.80;99.90;;;;;;4969885;28;20471;-72
2023/05/08 03:27:42;;;;;;;;;;;11.70;99.90;;;;;;4968774;28;19936;-71
2023/05/08 03:30:10;;;;;;;;;;;11.70;99.90;;;;;;4970977;28;20577;-72
2023/05/08 03:32:36;;;;;;;;;;;11.70;99.90;;;;;;4964286;28;20642;-72
2023/05/08 03:35:02;;;;;;;;;;;11.70;99.90;;;;;;4970408;28;19940;-72
2023/05/08 03:37:28;;;;;;;;;;;11.70;99.90;;;;;;4958004;28;19961;-72
2023/05/08 03:39:57;;;;;;;;;;;11.80;99.90;;;;;;4967633;28;19953;-72
2023/05/08 03:42:22;;;;;;;;;;;11.80;99.90;;;;;;4969147;28;19949;-72
2023/05/08 03:44:49;;;;;;;;;;;11.80;99.90;;;;;;4972830;28;19944;-72
2023/05/08 03:47:16;;;;;;;;;;;11.80;99.90;;;;;;4964926;28;19964;-72
2023/05/08 03:49:41;;;;;;;;;;;11.80;99.90;;;;;;4969489;28;19939;-72
2023/05/08 03:52:07;;;;;;;;;;;11.70;99.90;;;;;;4970762;28;19993;-73
2023/05/08 03:54:32;;;;;;;;;;;11.70;99.90;;;;;;4969292;28;19942;-72
2023/05/08 03:56:58;;;;;;;;;;;11.60;99.90;;;;;;4962669;28;20430;-72
2023/05/08 03:59:42;;;;;;;;;;;11.60;99.90;;;;;;4970083;28;19966;-72
2023/05/08 04:02:26;;;;;;;;;;;11.60;99.90;;;;;;4965940;28;19949;-72
2023/05/08 04:04:58;;;;;;;;;;;11.60;99.90;;;;;;4966423;28;20328;-72
2023/05/08 04:07:27;;;;;;;;;;;11.60;99.90;;;;;;4964579;28;20558;-73
2023/05/08 04:10:05;;;;;;;;;;;11.70;99.90;;;;;;4967331;28;19989;-72
2023/05/08 04:12:44;;;;;;;;;;;11.70;99.90;;;;;;4967206;28;19937;-72
2023/05/08 04:15:11;;;;;;;;;;;11.70;99.90;;;;;;4968590;28;19943;-72
2023/05/08 04:17:36;;;;;;;;;;;11.60;99.90;;;;;;4969560;28;20110;-72
2023/05/08 04:20:03;;;;;;;;;;;11.60;99.90;;;;;;4969350;28;20014;-72
2023/05/08 04:22:31;;;;;;;;;;;11.60;99.90;;;;;;4972156;28;19965;-63
2023/05/08 04:24:57;;;;;;;;;;;11.70;99.90;;;;;;4964243;28;19940;-62
2023/05/08 04:27:24;;;;;;;;;;;11.60;99.90;;;;;;4965959;28;19945;-62
2023/05/08 04:29:49;;;;;;;;;;;11.60;99.90;;;;;;4972144;28;19945;-62
2023/05/08 04:32:15;;;;;;;;;;;11.60;99.90;;;;;;4965180;28;19938;-62
2023/05/08 04:34:41;;;;;;;;;;;11.50;99.90;;;;;;4970252;28;20311;-62
2023/05/08 04:37:07;;;;;;;;;;;11.50;99.90;;;;;;4961238;28;20034;-63
2023/05/08 04:39:32;;;;;;;;;;;11.60;99.90;;;;;;4967567;28;19950;-72
2023/05/08 04:42:02;;;;;;;;;;;11.60;99.90;;;;;;4966891;28;19964;-64
2023/05/08 04:44:28;;;;;;;;;;;11.70;99.90;;;;;;4967338;28;19937;-64
2023/05/08 04:46:54;;;;;;;;;;;11.70;99.90;;;;;;4968574;28;20438;-64
2023/05/08 04:49:19;;;;;;;;;;;11.80;99.90;;;;;;4968615;28;19939;-63
2023/05/08 04:51:45;;;;;;;;;;;11.70;99.90;;;;;;4970616;28;19932;-63
2023/05/08 04:54:11;;;;;;;;;;;11.60;99.90;;;;;;4968149;28;20425;-63
2023/05/08 04:56:36;;;;;;;;;;;11.50;99.90;;;;;;4964282;28;19957;-63
2023/05/08 04:59:02;;;;;;;;;;;11.60;99.90;;;;;;4970626;28;20015;-63
2023/05/08 05:01:27;;;;;;;;;;;11.70;99.90;;;;;;4967102;28;19993;-63
2023/05/08 05:03:53;;;;;;;;;;;11.80;99.90;;;;;;4961983;28;19952;-63
2023/05/08 05:06:18;;;;;;;;;;;11.80;99.90;;;;;;4963332;28;19976;-63
2023/05/08 05:08:44;;;;;;;;;;;11.90;99.90;;;;;;4954624;28;19943;-63
2023/05/08 05:11:10;;;;;;;;;;;12.00;99.90;;;;;;4960070;28;20391;-63
2023/05/08 05:13:35;;;;;;;;;;;12.00;99.90;;;;;;4962887;28;19941;-63
2023/05/08 05:16:01;;;;;;;;;;;12.00;99.90;;;;;;4960215;28;19959;-70
2023/05/08 05:18:27;;;;;;;;;;;12.20;99.90;;;;;;4964011;28;19934;-71
2023/05/08 05:20:52;;;;;;;;;;;12.20;99.90;;;;;;4964629;28;20583;-71
2023/05/08 05:23:18;;;;;;;;;;;12.30;99.90;;;;;;4960808;28;19937;-71
2023/05/08 05:25:43;;;;;;;;;;;12.30;99.90;;;;;;4961368;28;20294;-72
2023/05/08 05:28:09;;;;;;;;;;;12.30;99.90;;;;;;4961856;28;20542;-71
2023/05/08 05:30:35;;;;;;;;;;;12.40;99.90;;;;;;4963670;28;19924;-72
2023/05/08 05:33:00;;;;;;;;;;;12.40;99.90;;;;;;4962061;28;20640;-63
2023/05/08 05:35:26;;;;;;;;;;;12.50;99.90;;;;;;4968683;28;20444;-63
2023/05/08 05:37:51;;;;;;;;;;;12.50;99.90;;;;;;4991737;28;19976;-64
2023/05/08 05:40:17;;;;;;;;;;;12.50;99.90;;;;;;4966909;28;19924;-70
2023/05/08 05:42:47;;;;;;;;;;;12.60;99.90;;;;;;4973954;28;19913;-70
2023/05/08 05:45:13;;;;;;;;;;;12.60;99.90;;;;;;4971382;28;19914;-70
2023/05/08 05:47:43;;;;;;;;;;;12.70;99.90;;;;;;4971048;28;19917;-70
2023/05/08 05:50:08;;;;;;;;;;;12.80;99.90;;;;;;4975616;28;19927;-70
2023/05/08 05:52:34;;;;;;;;;;;12.80;99.90;;;;;;4970617;28;20298;-70
2023/05/08 05:54:59;;;;;;;;;;;12.80;99.90;;;;;;4970578;28;20013;-70
2023/05/08 05:57:25;;;;;;;;;;;12.80;99.90;;;;;;4970153;28;19956;-70
2023/05/08 05:59:51;;;;;;;;;;;12.80;99.90;;;;;;4976078;28;19976;-63
2023/05/08 06:02:18;;;;;;;;;;;12.80;99.90;;;;;;4969582;28;19922;-67
2023/05/08 06:04:44;;;;;;;;;;;12.80;99.90;;;;;;4974425;28;19929;-63
2023/05/08 06:07:09;;;;;;;;;;;12.70;99.90;;;;;;4972520;28;19937;-63
2023/05/08 06:09:35;;;;;;;;;;;12.60;99.90;;;;;;4962976;28;19941;-63
2023/05/08 06:12:00;;;;;;;;;;;12.60;99.90;;;;;;4972282;28;20309;-63
2023/05/08 06:14:26;;;;;;;;;;;12.70;99.90;;;;;;4975450;28;19926;-63
2023/05/08 06:16:51;;;;;;;;;;;12.80;99.90;;;;;;4972116;28;20045;-63
2023/05/08 06:19:17;;;;;;;;;;;12.90;99.90;;;;;;4978294;28;19917;-63
2023/05/08 06:21:42;;;;;;;;;;;13.10;99.90;;;;;;4970404;28;20411;-63
2023/05/08 06:24:08;;;;;;;;;;;13.20;99.90;;;;;;4970913;28;19948;-63
2023/05/08 06:26:34;;;;;;;;;;;13.40;99.90;;;;;;4967146;28;19964;-63
2023/05/08 06:29:00;;;;;;;;;;;13.40;99.90;;;;;;4971481;28;19921;-63
2023/05/08 06:31:25;;;;;;;;;;;13.30;99.90;;;;;;4967118;28;20031;-63
2023/05/08 06:33:51;;;;;;;;;;;13.30;99.90;;;;;;4970899;28;20345;-63
2023/05/08 06:36:16;;;;;;;;;;;13.40;99.90;;;;;;4968222;28;19949;-63
2023/05/08 06:38:42;;;;;;;;;;;13.50;99.90;;;;;;4970153;28;19926;-63
2023/05/08 06:41:07;;;;;;;;;;;13.70;99.90;;;;;;4977923;28;19922;-62
2023/05/08 06:43:33;;;;;;;;;;;13.80;99.90;;;;;;4974402;28;19961;-62
2023/05/08 06:45:59;;;;;;;;;;;13.80;99.90;;;;;;4979303;28;20017;-63
2023/05/08 06:48:27;;;;;;;;;;;14.00;99.90;;;;;;4965715;28;19922;-63
2023/05/08 06:50:53;;;;;;;;;;;14.10;99.90;;;;;;4974218;28;19924;-63
2023/05/08 06:53:18;;;;;;;;;;;14.20;99.90;;;;;;4973341;28;19926;-63
2023/05/08 06:55:44;;;;;;;;;;;14.30;99.90;;;;;;4971525;28;19918;-63
2023/05/08 06:58:10;;;;;;;;;;;14.40;99.90;;;;;;4971191;28;19954;-69
2023/05/08 07:00:35;;;;;;;;;;;14.40;99.90;;;;;;4971551;28;19926;-69
2023/05/08 07:03:01;;;;;;;;;;;14.30;99.90;;;;;;4963078;28;20028;-69
2023/05/08 07:05:26;;;;;;;;;;;14.40;99.90;;;;;;4971192;28;19922;-71
2023/05/08 07:07:55;;;;;;;;;;;14.40;99.90;;;;;;4968538;28;19980;-70
2023/05/08 07:10:21;;;;;;;;;;;14.60;99.90;;;;;;4963097;28;19921;-70
2023/05/08 07:12:50;;;;;;;;;;;14.80;99.90;;;;;;4968830;28;19925;-70
2023/05/08 07:15:15;;;;;;;;;;;14.80;99.90;;;;;;4975073;28;19918;-70
2023/05/08 07:17:41;;;;;;;;;;;14.90;99.90;;;;;;4962772;28;21140;-63
2023/05/08 07:20:07;;;;;;;;;;;14.90;99.90;;;;;;4974166;28;19922;-63
2023/05/08 07:22:33;;;;;;;;;;;15.00;99.90;;;;;;4966011;28;19930;-63
2023/05/08 07:24:58;;;;;;;;;;;15.10;99.90;;;;;;4967790;28;19918;-64
2023/05/08 07:27:24;;;;;;;;;;;15.20;99.90;;;;;;4965333;28;20428;-63
2023/05/08 07:29:49;;;;;;;;;;;15.20;99.20;;;;;;4968994;28;19956;-62
2023/05/08 07:32:15;;;;;;;;;;;15.20;99.80;;;;;;4963995;28;19946;-63
2023/05/08 07:34:41;;;;;;;;;;;15.30;99.90;;;;;;4971458;28;19917;-64
2023/05/08 07:37:06;;;;;;;;;;;15.60;99.20;;;;;;4970904;28;19922;-71
2023/05/08 07:39:32;;;;;;;;;;;15.70;99.10;;;;;;4961096;28;20390;-71
2023/05/08 07:41:57;;;;;;;;;;;15.60;99.90;;;;;;4964415;28;19953;-70
2023/05/08 07:44:23;;;;;;;;;;;15.50;99.90;;;;;;4968929;28;20506;-70
2023/05/08 07:46:48;;;;;;;;;;;15.60;99.40;;;;;;4962775;28;20642;-70
2023/05/08 07:49:14;;;;;;;;;;;15.70;97.70;;;;;;4966671;28;19917;-70
2023/05/08 07:51:40;;;;;;;;;;;15.80;97.10;;;;;;4971598;28;20008;-70
2023/05/08 07:54:05;;;;;;;;;;;15.60;96.30;;;;;;4967516;28;19926;-70
2023/05/08 07:56:31;;;;;;;;;;;15.50;98.70;;;;;;4965152;28;20453;-70
2023/05/08 07:58:56;;;;;;;;;;;15.60;96.70;;;;;;4962087;28;19953;-70
2023/05/08 08:01:22;;;;;;;;;;;15.80;97.40;;;;;;4959458;28;19927;-71
2023/05/08 08:03:47;;;;;;;;;;;15.90;96.50;;;;;;4966683;28;19957;-70
2023/05/08 08:06:13;;;;;;;;;;;15.90;98.50;;;;;;4969340;28;20566;-70
2023/05/08 08:08:39;;;;;;;;;;;16.10;97.80;;;;;;4957036;28;19969;-73
2023/05/08 08:11:05;;;;;;;;;;;16.20;97.30;;;;;;4966666;28;19914;-70
2023/05/08 08:13:31;;;;;;;;;;;16.30;98.10;;;;;;4970470;28;19922;-63
2023/05/08 08:15:57;;;;;;;;;;;16.40;98.10;;;;;;4968303;28;19933;-63
2023/05/08 08:18:23;;;;;;;;;;;16.50;96.80;;;;;;4972821;28;19961;-63
2023/05/08 08:20:48;;;;;;;;;;;16.50;96.80;;;;;;4968109;28;19918;-63
2023/05/08 08:23:14;;;;;;;;;;;16.50;97.90;;;;;;4968012;28;19930;-63
2023/05/08 08:25:39;;;;;;;;;;;16.40;94.90;;;;;;4963497;28;19972;-64
2023/05/08 08:28:05;;;;;;;;;;;16.10;97.80;;;;;;4965778;28;19922;-63
2023/05/08 08:30:30;;;;;;;;;;;16.20;97.70;;;;;;4961688;28;20352;-64
2023/05/08 08:32:57;;;;;;;;;;;16.10;96.80;;;;;;4967288;28;19949;-64
2023/05/08 08:35:28;;;;;;;;;;;16.20;96.10;;;;;;4965885;28;20522;-70
2023/05/08 08:37:54;;;;;;;;;;;16.30;94.50;;;;;;4966518;28;20045;-70
2023/05/08 08:40:20;;;;;;;;;;;16.50;95.60;;;;;;4956162;28;19921;-71
2023/05/08 08:42:46;;;;;;;;;;;16.60;95.50;;;;;;4954816;28;20642;-70
2023/05/08 08:45:11;;;;;;;;;;;16.60;94.90;;;;;;4962875;28;19929;-70
2023/05/08 08:47:40;;;;;;;;;;;16.70;95.20;;;;;;4953804;28;19918;-71
2023/05/08 08:50:07;;;;;;;;;;;16.70;95.60;;;;;;4968370;28;19921;-71
2023/05/08 08:52:39;;;;;;;;;;;16.60;93.00;;;;;;4969548;28;20323;-71
2023/05/08 08:55:07;;;;;;;;;;;16.50;95.70;;;;;;4966739;28;20274;-72
2023/05/08 08:57:34;;;;;;;;;;;16.40;96.80;;;;;;4964648;28;19988;-71
2023/05/08 09:00:04;;;;;;;;;;;16.40;97.00;;;;;;4969834;28;19922;-71
2023/05/08 09:02:30;;;;;;;;;;;16.60;95.80;;;;;;4963964;28;19925;-71
2023/05/08 09:04:56;;;;;;;;;;;16.70;94.60;;;;;;4963275;28;19918;-71
2023/05/08 09:07:22;;;;;;;;;;;16.70;96.60;;;;;;4970211;28;19984;-71
2023/05/08 09:09:48;;;;;;;;;;;16.90;94.70;;;;;;4962365;28;20016;-70
2023/05/08 09:12:13;;;;;;;;;;;17.10;94.60;;;;;;4968664;28;19958;-63
2023/05/08 09:14:39;;;;;;;;;;;17.20;94.50;;;;;;4968499;28;20024;-63
2023/05/08 09:17:05;;;;;;;;;;;17.20;93.10;;;;;;4966851;28;19922;-63
2023/05/08 09:19:31;;;;;;;;;;;17.20;92.20;;;;;;4967996;28;19987;-62
2023/05/08 09:21:59;;;;;;;;;;;17.30;94.00;;;;;;4968222;28;20249;-62
2023/05/08 09:24:26;;;;;;;;;;;17.30;94.20;;;;;;4966363;28;20611;-63
2023/05/08 09:26:52;;;;;;;;;;;17.20;95.60;;;;;;4947104;28;19929;-63
2023/05/08 09:29:19;;;;;;;;;;;17.30;92.10;;;;;;4955167;28;19918;-71
2023/05/08 09:31:46;;;;;;;;;;;17.30;93.30;;;;;;4964438;28;20477;-63
2023/05/08 09:34:25;;;;;;;;;;;17.30;92.70;;;;;;4965324;28;19925;-63
2023/05/08 09:36:51;;;;;;;;;;;17.30;91.90;;;;;;4947414;28;19930;-71
2023/05/08 09:39:21;;;;;;;;;;;17.40;92.60;;;;;;4950214;28;21911;-63
2023/05/08 09:42:02;;;;;;;;;;;17.60;92.20;;;;;;4954563;28;20783;-63
2023/05/08 09:44:41;;;;;;;;;;;17.70;91.60;;;;;;4952588;28;19924;-63
2023/05/08 09:47:11;;;;;;;;;;;17.60;92.90;;;;;;4964371;28;20090;-63
2023/05/08 09:49:38;;;;;;;;;;;17.70;92.60;;;;;;4970476;28;19922;-64
2023/05/08 09:52:04;;;;;;;;;;;17.70;93.50;;;;;;4960812;28;19925;-70
2023/05/08 09:54:29;;;;;;;;;;;17.70;92.30;;;;;;4962454;28;20012;-70
2023/05/08 09:56:55;;;;;;;;;;;17.80;90.60;;;;;;4961432;28;19938;-69
2023/05/08 09:59:22;;;;;;;;;;;17.90;90.60;;;;;;4962354;28;19919;-70
2023/05/08 10:01:47;;;;;;;;;;;17.80;88.90;;;;;;4960361;28;20534;-70
2023/05/08 10:04:13;;;;;;;;;;;17.70;90.20;;;;;;4972082;28;19964;-71
2023/05/08 10:06:38;;;;;;;;;;;17.80;91.70;;;;;;4962681;28;19918;-70
2023/05/08 10:09:13;;;;;;;;;;;17.90;90.50;;;;;;4961628;28;19914;-70
2023/05/08 10:11:51;;;;;;;;;;;17.90;91.40;;;;;;4970764;28;19919;-63
2023/05/08 10:14:17;;;;;;;;;;;18.00;92.80;;;;;;4973689;28;20025;-64
2023/05/08 10:16:43;;;;;;;;;;;18.00;90.50;;;;;;4973178;28;20144;-64
2023/05/08 10:19:11;;;;;;;;;;;17.90;88.20;;;;;;4964823;28;19926;-64
2023/05/08 10:21:37;;;;;;;;;;;17.80;91.80;;;;;;4967926;28;19979;-64
2023/05/08 10:24:04;;;;;;;;;;;17.90;91.10;;;;;;4967823;28;19933;-64
2023/05/08 10:26:30;;;;;;;;;;;17.90;91.00;;;;;;4968164;28;20445;-65
2023/05/08 10:28:57;;;;;;;;;;;18.20;89.70;;;;;;4960766;28;19976;-64
2023/05/08 10:31:27;;;;;;;;;;;18.20;86.10;;;;;;4970107;28;20386;-64
2023/05/08 10:33:54;;;;;;;;;;;18.20;87.40;;;;;;4976490;28;19956;-64
2023/05/08 10:36:20;;;;;;;;;;;18.30;86.10;;;;;;4970465;28;19976;-64
2023/05/08 10:38:46;;;;;;;;;;;18.40;84.40;;;;;;4966155;28;19926;-65
2023/05/08 10:41:12;;;;;;;;;;;18.30;83.60;;;;;;4958026;28;19914;-64
2023/05/08 10:43:40;;;;;;;;;;;18.10;80.50;;;;;;4965776;28;19926;-64
2023/05/08 10:46:15;;;;;;;;;;;18.20;80.30;;;;;;4970483;28;20557;-64
2023/05/08 10:48:49;;;;;;;;;;;18.20;80.20;;;;;;4967663;28;19922;-64
2023/05/08 10:51:22;;;;;;;;;;;18.30;84.70;;;;;;4963253;28;19941;-64
2023/05/08 10:53:51;;;;;;;;;;;18.40;84.00;;;;;;4973284;28;19913;-64
2023/05/08 10:56:16;;;;;;;;;;;18.60;85.20;;;;;;4967619;28;19918;-64
2023/05/08 10:58:42;;;;;;;;;;;18.60;75.70;;;;;;4970502;28;19932;-63
2023/05/08 11:01:07;;;;;;;;;;;18.30;77.20;;;;;;4962517;28;20446;-64
2023/05/08 11:03:43;;;;;;;;;;;18.10;75.00;;;;;;4969574;28;20649;-65
2023/05/08 11:06:09;;;;;;;;;;;17.90;82.40;;;;;;4971594;28;19913;-64
2023/05/08 11:08:42;;;;;;;;;;;17.80;76.50;;;;;;4965491;28;19984;-64
2023/05/08 11:11:12;;;;;;;;;;;17.90;81.00;;;;;;4968365;28;20390;-64
2023/05/08 11:13:43;;;;;;;;;;;17.90;74.80;;;;;;4962416;28;20331;-64
2023/05/08 11:16:12;;;;;;;;;;;18.00;82.80;;;;;;4971574;28;19917;-64
2023/05/08 11:18:57;;;;;;;;;;;18.30;77.90;;;;;;4970177;28;19976;-64
2023/05/08 11:21:23;;;;;;;;;;;18.40;78.00;;;;;;4967113;28;20784;-63
2023/05/08 11:23:57;;;;;;;;;;;18.40;76.10;;;;;;4965872;28;19932;-64
2023/05/08 11:26:37;;;;;;;;;;;18.40;74.60;;;;;;4968194;28;19929;-72
2023/05/08 11:29:14;;;;;;;;;;;18.50;72.90;;;;;;4963890;28;19929;-70
2023/05/08 11:31:49;;;;;;;;;;;18.40;76.00;;;;;;4962713;28;19979;-71
2023/05/08 11:34:33;;;;;;;;;;;18.40;72.30;;;;;;4985677;28;20433;-71
2023/05/08 11:37:00;;;;;;;;;;;18.40;73.50;;;;;;4965952;28;19961;-70
2023/05/08 11:39:26;;;;;;;;;;;18.40;74.10;;;;;;4953673;28;20417;-71
2023/05/08 11:41:51;;;;;;;;;;;18.40;73.90;;;;;;4944790;28;19918;-71
2023/05/08 11:44:21;;;;;;;;;;;18.40;72.60;;;;;;4967001;28;20446;-71
2023/05/08 11:46:51;;;;;;;;;;;18.50;77.40;;;;;;4971532;28;20354;-71
2023/05/08 11:49:17;;;;;;;;;;;18.60;72.30;;;;;;4973660;28;19914;-70
2023/05/08 11:51:44;;;;;;;;;;;18.50;72.90;;;;;;4970630;28;19918;-70
2023/05/08 11:54:14;;;;;;;;;;;18.50;72.20;;;;;;4971553;28;19953;-71
2023/05/08 11:56:39;;;;;;;;;;;18.50;73.20;;;;;;4973428;28;19914;-71
2023/05/08 11:59:07;;;;;;;;;;;18.60;75.40;;;;;;4964908;28;19925;-71
2023/05/08 12:01:33;;;;;;;;;;;18.70;73.10;;;;;;4970141;28;19917;-70
2023/05/08 12:04:01;;;;;;;;;;;18.80;73.20;;;;;;4969408;28;20398;-71
2023/05/08 12:06:27;;;;;;;;;;;18.70;69.90;;;;;;4973526;28;19918;-64
2023/05/08 12:08:52;;;;;;;;;;;18.70;69.00;;;;;;4968729;28;19921;-63
2023/05/08 12:11:23;;;;;;;;;;;18.60;70.80;;;;;;4969142;28;19922;-63
2023/05/08 12:13:52;;;;;;;;;;;18.50;70.40;;;;;;4968305;28;20000;-63
2023/05/08 12:16:18;;;;;;;;;;;18.50;71.00;;;;;;4969171;28;20402;-63
2023/05/08 12:18:43;;;;;;;;;;;18.60;70.70;;;;;;4971956;28;20028;-63
2023/05/08 12:21:10;;;;;;;;;;;18.60;74.20;;;;;;4970654;28;20326;-64
2023/05/08 12:23:35;;;;;;;;;;;18.70;71.20;;;;;;4968221;28;20330;-64
2023/05/08 12:26:01;;;;;;;;;;;18.80;72.30;;;;;;4967684;28;19925;-71
2023/05/08 12:28:26;;;;;;;;;;;19.00;73.00;;;;;;4961099;28;24083;-71
2023/05/08 12:30:52;;;;;;;;;;;19.10;69.80;;;;;;4951978;28;20012;-71
2023/05/08 12:33:18;;;;;;;;;;;19.00;68.60;;;;;;4960851;28;19962;-70
2023/05/08 12:35:44;;;;;;;;;;;18.90;66.20;;;;;;4960746;28;19922;-70
2023/05/08 12:38:10;;;;;;;;;;;18.80;68.50;;;;;;4963496;28;20004;-72
2023/05/08 12:40:47;;;;;;;;;;;18.70;66.80;;;;;;4968219;28;19922;-71
2023/05/08 12:43:13;;;;;;;;;;;18.60;67.00;;;;;;4968276;28;19914;-72
2023/05/08 12:45:40;;;;;;;;;;;18.50;66.30;;;;;;4969438;28;20005;-63
2023/05/08 12:48:06;;;;;;;;;;;18.50;66.80;;;;;;4969776;28;19922;-63
2023/05/08 12:50:33;;;;;;;;;;;18.60;67.00;;;;;;4972821;28;19918;-63
2023/05/08 12:53:06;;;;;;;;;;;18.60;66.40;;;;;;4964304;28;19936;-63
2023/05/08 12:55:33;;;;;;;;;;;18.60;68.40;;;;;;4971932;28;20354;-63
2023/05/08 12:58:08;;;;;;;;;;;18.70;67.10;;;;;;4973000;28;20370;-63
2023/05/08 13:00:38;;;;;;;;;;;18.80;65.60;;;;;;4968977;28;19914;-63
2023/05/08 13:03:04;;;;;;;;;;;18.70;66.50;;;;;;4968802;28;19921;-63
2023/05/08 13:05:29;;;;;;;;;;;18.70;67.40;;;;;;4968969;28;19926;-62
2023/05/08 13:08:02;;;;;;;;;;;18.70;66.40;;;;;;4970909;28;20023;-62
2023/05/08 13:10:46;;;;;;;;;;;18.80;65.20;;;;;;4964737;28;19918;-63
2023/05/08 13:13:12;;;;;;;;;;;18.90;67.30;;;;;;4968611;28;19929;-63
2023/05/08 13:15:38;;;;;;;;;;;19.00;64.50;;;;;;4963259;28;19947;-63
2023/05/08 13:18:03;;;;;;;;;;;19.00;65.70;;;;;;4972044;28;20621;-62
2023/05/08 13:20:29;;;;;;;;;;;19.00;63.80;;;;;;4967865;28;20420;-63
2023/05/08 13:22:54;;;;;;;;;;;18.90;63.40;;;;;;4967330;28;19926;-72
2023/05/08 13:25:20;;;;;;;;;;;18.90;64.60;;;;;;4965042;28;20000;-63
2023/05/08 13:27:45;;;;;;;;;;;18.90;63.50;;;;;;4960223;28;21583;-63
2023/05/08 13:30:12;;;;;;;;;;;19.10;65.10;;;;;;4967264;28;19922;-63
2023/05/08 13:32:37;;;;;;;;;;;19.20;64.70;;;;;;4967110;28;20001;-63
2023/05/08 13:35:03;;;;;;;;;;;19.40;64.80;;;;;;4969396;28;19918;-63
2023/05/08 13:37:29;;;;;;;;;;;19.50;66.90;;;;;;4967798;28;19933;-64
2023/05/08 13:39:54;;;;;;;;;;;19.60;63.10;;;;;;4968928;28;19929;-63
2023/05/08 13:42:20;;;;;;;;;;;19.70;68.30;;;;;;4958523;28;20615;-63
2023/05/08 13:44:45;;;;;;;;;;;19.70;64.20;;;;;;4966653;28;19960;-71
2023/05/08 13:47:11;;;;;;;;;;;19.70;62.90;;;;;;4967194;28;19925;-71
2023/05/08 13:49:36;;;;;;;;;;;19.70;66.10;;;;;;4973255;28;19921;-71
2023/05/08 13:52:02;;;;;;;;;;;19.80;66.40;;;;;;4968326;28;19922;-72
2023/05/08 13:54:28;;;;;;;;;;;19.80;63.30;;;;;;4962758;28;19925;-71
2023/05/08 13:56:53;;;;;;;;;;;19.70;61.30;;;;;;4971878;28;19929;-70
2023/05/08 13:59:19;;;;;;;;;;;19.70;66.40;;;;;;4967334;28;20398;-71
2023/05/08 14:01:44;;;;;;;;;;;19.80;61.00;;;;;;4969702;28;19917;-71
2023/05/08 14:04:10;;;;;;;;;;;19.70;60.30;;;;;;4966699;28;19922;-73
2023/05/08 14:06:36;;;;;;;;;;;19.70;61.20;;;;;;4969184;28;20383;-73
2023/05/08 14:09:01;;;;;;;;;;;19.60;59.30;;;;;;4973946;28;19976;-70
2023/05/08 14:11:28;;;;;;;;;;;19.50;58.50;;;;;;4968379;28;20353;-71
2023/05/08 14:13:54;;;;;;;;;;;19.30;62.50;;;;;;4976331;28;19922;-71
2023/05/08 14:16:19;;;;;;;;;;;19.40;60.20;;;;;;4998768;28;19921;-71
2023/05/08 14:18:45;;;;;;;;;;;19.40;59.50;;;;;;4964305;28;21076;-71